Jerry City, Ohio
Current Conditions -  °F | °C
As of 4:53 AM on Monday 22 Dec 2014 (Local Time) from KFDY Reporting Station
Haze Haze  
Wind Chill: 17°   Ceiling: Unl
Heat Index: 25°   Visibility: 6mi
Dew Point: 21°   Wind: 7mph
Humidity: 85%   Direction: 90°E
Pressure: 30.07"   Gusts: NA
Location:  41.25°N, 83.6°W
Report Text: KFDY 220953Z AUTO 09006KT 6SM BR CLR M04/M06 A3007 RMK AO2 SLP188 T10391061
Loading
Personal Weather Stations






























Interactive Weather Map New forecast layout! Learn more

10-Day Weather Forecast

Advertisements
Track Severe Weather on mobile